createdAt,value
2023-04-30T00:01:31.356Z,12.40
2023-04-30T00:06:33.457Z,12.60
2023-04-30T00:11:35.612Z,12.70
2023-04-30T00:16:37.685Z,12.70
2023-04-30T00:21:39.909Z,12.60
2023-04-30T00:26:43.872Z,12.60
2023-04-30T00:31:46.003Z,12.60
2023-04-30T00:36:48.031Z,12.70
2023-04-30T00:41:50.092Z,12.70
2023-04-30T00:46:52.201Z,12.60
2023-04-30T00:51:54.799Z,12.50
2023-04-30T00:56:58.114Z,12.60
2023-04-30T01:02:01.081Z,12.50
2023-04-30T01:07:03.468Z,12.50
2023-04-30T01:12:15.119Z,12.30
2023-04-30T01:17:38.035Z,12.30
2023-04-30T01:22:42.899Z,12.40
2023-04-30T01:28:06.822Z,12.30
2023-04-30T01:33:09.354Z,12.30
2023-04-30T01:38:18.893Z,12.40
2023-04-30T01:43:36.192Z,12.40
2023-04-30T01:48:52.452Z,12.40
2023-04-30T01:53:58.303Z,12.40
2023-04-30T01:59:00.807Z,12.50
2023-04-30T02:04:03.842Z,12.30
2023-04-30T02:09:07.126Z,12.30
2023-04-30T02:14:09.185Z,12.30
2023-04-30T02:19:12.384Z,12.20
2023-04-30T02:24:14.504Z,12.30
2023-04-30T02:29:17.406Z,12.40
2023-04-30T02:34:19.434Z,12.30
2023-04-30T02:39:21.473Z,12.30
2023-04-30T02:44:23.496Z,12.20
2023-04-30T02:49:25.608Z,12.20
2023-04-30T02:54:27.777Z,12.30
2023-04-30T02:59:32.488Z,12.30
2023-04-30T03:04:34.560Z,12.30
2023-04-30T03:09:36.979Z,12.30
2023-04-30T03:14:39.004Z,12.30
2023-04-30T03:19:41.149Z,12.30
2023-04-30T03:24:43.338Z,12.20
2023-04-30T03:29:45.446Z,12.20
2023-04-30T03:34:47.544Z,12.30
2023-04-30T03:39:49.571Z,12.20
2023-04-30T03:44:51.650Z,12.00
2023-04-30T03:49:55.879Z,11.90
2023-04-30T03:54:58.923Z,11.80
2023-04-30T04:00:01.012Z,11.70
2023-04-30T04:05:04.162Z,11.70
2023-04-30T04:10:07.148Z,11.80
2023-04-30T04:15:09.871Z,11.80
2023-04-30T04:20:14.139Z,11.90
2023-04-30T04:25:18.183Z,11.80
2023-04-30T04:30:20.609Z,11.80
2023-04-30T04:35:24.457Z,11.80
2023-04-30T04:40:26.534Z,11.90
2023-04-30T04:45:28.763Z,12.10
2023-04-30T04:50:31.435Z,12.10
2023-04-30T04:55:33.914Z,12.20
2023-04-30T05:00:35.960Z,12.20
2023-04-30T05:05:38.715Z,12.20
2023-04-30T05:10:41.037Z,12.20
2023-04-30T05:15:43.310Z,12.10
2023-04-30T05:20:45.440Z,12.00
2023-04-30T05:25:52.315Z,12.10
2023-04-30T05:30:54.336Z,12.20
2023-04-30T05:35:56.361Z,12.20
2023-04-30T05:40:58.565Z,12.20
2023-04-30T05:46:00.803Z,12.30
2023-04-30T05:51:03.390Z,12.30
2023-04-30T05:56:05.725Z,12.50
2023-04-30T06:01:10.991Z,12.50
2023-04-30T06:06:13.075Z,12.60
2023-04-30T06:11:15.448Z,12.70
2023-04-30T06:16:17.915Z,12.70
2023-04-30T06:21:20.559Z,12.70
2023-04-30T06:26:22.693Z,12.80
2023-04-30T06:31:24.956Z,12.90
2023-04-30T06:36:27.007Z,12.90
2023-04-30T06:41:29.057Z,12.90
2023-04-30T06:46:31.108Z,12.90
2023-04-30T06:51:33.541Z,13.00
2023-04-30T06:56:35.623Z,13.10
2023-04-30T07:01:37.746Z,13.20
2023-04-30T07:06:40.136Z,13.30
2023-04-30T07:11:42.789Z,13.30
2023-04-30T07:16:45.565Z,13.30
2023-04-30T07:21:47.619Z,13.30
2023-04-30T07:26:49.746Z,13.30
2023-04-30T07:31:51.847Z,13.20
2023-04-30T07:36:53.964Z,13.10
2023-04-30T07:41:56.001Z,13.20
2023-04-30T07:46:58.218Z,13.30
2023-04-30T07:52:01.483Z,13.30
2023-04-30T07:57:03.817Z,13.50
2023-04-30T08:02:06.425Z,13.70
2023-04-30T08:07:08.635Z,13.60
2023-04-30T08:12:10.820Z,13.60
2023-04-30T08:17:12.851Z,13.50
2023-04-30T08:22:14.888Z,13.50
2023-04-30T08:27:17.096Z,13.50
2023-04-30T08:32:20.051Z,13.80
2023-04-30T08:37:22.213Z,14.30
2023-04-30T08:42:26.942Z,14.10
2023-04-30T08:47:29.338Z,14.10
2023-04-30T08:52:34.454Z,14.00
2023-04-30T08:57:38.634Z,13.80
2023-04-30T09:02:44.123Z,14.00
2023-04-30T09:13:01.523Z,14.00
2023-04-30T09:18:11.750Z,14.10
2023-04-30T09:23:13.903Z,14.00
2023-04-30T09:28:16.647Z,14.00
2023-04-30T09:33:18.825Z,13.90
2023-04-30T09:38:32.107Z,13.90
2023-04-30T09:43:34.261Z,14.00
2023-04-30T09:48:41.123Z,14.10
2023-04-30T09:53:44.741Z,14.00
2023-04-30T09:58:51.561Z,13.80
2023-04-30T10:03:54.083Z,13.90
2023-04-30T10:08:58.348Z,14.00
2023-04-30T10:14:16.322Z,14.20
2023-04-30T10:19:30.318Z,14.40
2023-04-30T10:24:32.422Z,14.60
2023-04-30T10:29:34.429Z,14.60
2023-04-30T10:34:52.984Z,14.50
2023-04-30T10:39:55.974Z,14.70
2023-04-30T10:44:58.305Z,14.70
2023-04-30T10:50:04.944Z,14.60
2023-04-30T10:55:08.908Z,14.30
2023-04-30T11:00:11.470Z,14.20
2023-04-30T11:05:18.128Z,14.00
2023-04-30T11:10:28.485Z,14.20
2023-04-30T11:15:45.974Z,14.50
2023-04-30T11:20:55.086Z,15.10
2023-04-30T11:25:59.270Z,15.50
2023-04-30T11:31:01.806Z,15.50
2023-04-30T11:36:04.183Z,15.30
2023-04-30T11:41:06.786Z,15.40
2023-04-30T11:46:15.417Z,16.00
2023-04-30T11:51:22.134Z,16.40
2023-04-30T11:56:25.417Z,16.30
2023-04-30T12:01:28.520Z,15.70
2023-04-30T12:06:31.476Z,15.80
2023-04-30T12:11:35.070Z,15.70
2023-04-30T12:16:51.907Z,15.90
2023-04-30T12:21:55.367Z,16.30
2023-04-30T12:27:01.921Z,16.50
2023-04-30T12:32:05.472Z,16.80
2023-04-30T12:37:07.637Z,17.70
2023-04-30T12:42:10.353Z,17.70
2023-04-30T12:47:12.821Z,17.70
2023-04-30T12:52:15.651Z,17.70
2023-04-30T12:57:17.864Z,17.30
2023-04-30T13:02:23.952Z,17.20
2023-04-30T13:07:26.179Z,17.50
2023-04-30T13:12:28.157Z,18.10
2023-04-30T13:17:30.265Z,18.40
2023-04-30T13:22:32.335Z,18.10
2023-04-30T13:27:34.345Z,17.40
2023-04-30T13:32:36.846Z,16.90
2023-04-30T13:37:39.340Z,16.80
2023-04-30T13:42:43.177Z,16.60
2023-04-30T13:47:45.421Z,16.50
2023-04-30T13:52:47.548Z,17.20
2023-04-30T13:57:49.548Z,16.80
2023-04-30T14:02:51.738Z,16.70
2023-04-30T14:07:53.881Z,16.50
2023-04-30T14:12:55.961Z,16.80
2023-04-30T14:17:58.211Z,17.20
2023-04-30T14:23:02.085Z,17.60
2023-04-30T14:28:04.880Z,17.30
2023-04-30T14:33:07.006Z,17.60
2023-04-30T14:38:09.244Z,17.90
2023-04-30T14:43:11.657Z,18.60
2023-04-30T14:48:13.841Z,18.40
2023-04-30T14:53:15.945Z,17.80
2023-04-30T14:58:19.608Z,17.00
2023-04-30T15:03:21.723Z,17.00
2023-04-30T15:08:24.106Z,16.90
2023-04-30T15:13:26.116Z,16.60
2023-04-30T15:18:28.548Z,16.20
2023-04-30T15:23:30.597Z,16.30
2023-04-30T15:28:35.972Z,16.80
2023-04-30T15:33:41.971Z,17.40
2023-04-30T15:38:44.113Z,17.20
2023-04-30T15:43:46.239Z,16.30
2023-04-30T15:48:48.279Z,16.10
2023-04-30T15:53:50.347Z,16.10
2023-04-30T15:58:56.019Z,16.50
2023-04-30T16:03:58.364Z,16.40
2023-04-30T16:09:01.985Z,16.20
2023-04-30T16:14:04.103Z,16.40
2023-04-30T16:19:09.669Z,16.40
2023-04-30T16:24:12.726Z,16.40
2023-04-30T16:29:15.353Z,16.70
2023-04-30T16:34:17.416Z,16.40
2023-04-30T16:39:19.461Z,15.80
2023-04-30T16:44:22.593Z,15.80
2023-04-30T16:49:24.595Z,15.50
2023-04-30T16:54:26.718Z,15.20
2023-04-30T16:59:28.775Z,15.10
2023-04-30T17:04:31.232Z,15.10
2023-04-30T17:09:33.235Z,15.10
2023-04-30T17:14:35.237Z,14.80
2023-04-30T17:19:37.251Z,14.70
2023-04-30T17:24:39.738Z,14.80
2023-04-30T17:29:42.236Z,14.80
2023-04-30T17:34:44.382Z,14.60
2023-04-30T17:39:46.640Z,14.40
2023-04-30T17:44:49.082Z,14.50
2023-04-30T17:49:51.100Z,14.50
2023-04-30T17:54:53.166Z,14.50
2023-04-30T17:59:55.338Z,14.50
2023-04-30T18:04:57.589Z,14.40
2023-04-30T18:09:59.925Z,14.40
2023-04-30T18:15:02.355Z,14.50
2023-04-30T18:20:08.033Z,14.50
2023-04-30T18:25:11.840Z,14.50
2023-04-30T18:30:13.933Z,14.40
2023-04-30T18:35:16.089Z,14.30
2023-04-30T18:40:19.075Z,14.20
2023-04-30T18:45:21.722Z,14.20
2023-04-30T18:50:24.938Z,14.30
2023-04-30T18:55:26.992Z,14.30
2023-04-30T19:00:29.115Z,14.30
2023-04-30T19:05:33.336Z,14.20
2023-04-30T19:10:36.331Z,14.10
2023-04-30T19:15:42.317Z,14.10
2023-04-30T19:20:56.835Z,14.10
2023-04-30T19:25:59.725Z,14.20
2023-04-30T19:31:01.995Z,14.20
2023-04-30T19:36:04.447Z,14.20
2023-04-30T19:41:07.307Z,14.20
2023-04-30T19:46:10.262Z,14.10
2023-04-30T19:51:12.479Z,14.00
2023-04-30T19:56:14.545Z,14.00
2023-04-30T20:01:16.624Z,14.00
2023-04-30T20:06:19.583Z,13.90
2023-04-30T20:11:22.728Z,13.90
2023-04-30T20:16:24.827Z,13.90
2023-04-30T20:21:27.822Z,13.90
2023-04-30T20:26:29.935Z,13.80
2023-04-30T20:31:33.060Z,13.80
2023-04-30T20:36:35.997Z,13.90
2023-04-30T20:41:38.145Z,14.00
2023-04-30T20:46:40.461Z,13.90
2023-04-30T20:51:42.524Z,13.80
2023-04-30T20:56:47.452Z,13.80
2023-04-30T21:01:49.493Z,13.70
2023-04-30T21:06:51.640Z,13.60
2023-04-30T21:11:53.924Z,13.60
2023-04-30T21:16:56.371Z,13.70
2023-04-30T21:21:58.639Z,13.60
2023-04-30T21:27:00.698Z,13.60
2023-04-30T21:32:03.416Z,13.60
2023-04-30T21:37:05.493Z,13.60
2023-04-30T21:42:07.932Z,13.40
2023-04-30T21:47:10.614Z,13.40
2023-04-30T21:52:12.668Z,13.30
2023-04-30T21:57:14.670Z,13.30
2023-04-30T22:02:23.749Z,13.30
2023-04-30T22:07:27.360Z,13.30
2023-04-30T22:12:29.345Z,13.30
2023-04-30T22:17:32.190Z,13.30
2023-04-30T22:22:34.348Z,13.20
2023-04-30T22:27:36.639Z,13.20
2023-04-30T22:32:38.770Z,13.10
2023-04-30T22:37:41.105Z,13.00
2023-04-30T22:42:43.803Z,13.00
2023-04-30T22:47:46.151Z,13.00
2023-04-30T22:52:49.160Z,13.00
2023-04-30T22:57:51.288Z,13.00
2023-04-30T23:02:53.574Z,13.10
2023-04-30T23:07:55.688Z,13.00
2023-04-30T23:12:58.847Z,13.00
2023-04-30T23:18:01.067Z,13.00
2023-04-30T23:23:03.133Z,13.00
2023-04-30T23:28:05.516Z,12.90
2023-04-30T23:33:07.671Z,12.90
2023-04-30T23:38:10.169Z,12.90
2023-04-30T23:43:12.188Z,12.90
2023-04-30T23:48:14.259Z,12.80
2023-04-30T23:53:17.203Z,12.80
2023-04-30T23:58:19.234Z,12.80
